createdAt,value
2022-09-12T00:01:24.551Z,2.20
2022-09-12T00:03:58.248Z,2.13
2022-09-12T00:06:31.893Z,1.90
2022-09-12T00:09:05.906Z,2.00
2022-09-12T00:11:36.648Z,2.15
2022-09-12T00:14:05.076Z,1.90
2022-09-12T00:16:34.567Z,2.20
2022-09-12T00:19:02.676Z,1.88
2022-09-12T00:21:30.096Z,2.13
2022-09-12T00:23:57.695Z,2.00
2022-09-12T00:26:25.491Z,1.92
2022-09-12T00:28:53.985Z,2.30
2022-09-12T00:31:27.246Z,2.03
2022-09-12T00:33:58.667Z,2.22
2022-09-12T00:36:27.068Z,2.17
2022-09-12T00:38:54.903Z,1.75
2022-09-12T00:41:39.032Z,1.60
2022-09-12T00:44:12.387Z,2.22
2022-09-12T00:46:46.291Z,1.92
2022-09-12T00:49:28.605Z,2.20
2022-09-12T00:52:05.195Z,1.95
2022-09-12T00:54:38.613Z,2.30
2022-09-12T00:57:08.324Z,1.73
2022-09-12T00:59:50.458Z,1.98
2022-09-12T01:02:18.308Z,1.70
2022-09-12T01:04:45.757Z,1.70
2022-09-12T01:07:13.699Z,1.80
2022-09-12T01:09:44.276Z,1.65
2022-09-12T01:12:13.798Z,1.77
2022-09-12T01:14:41.214Z,1.83
2022-09-12T01:17:13.803Z,1.70
2022-09-12T01:20:26.637Z,1.80
2022-09-12T01:23:18.927Z,1.70
2022-09-12T01:26:07.704Z,1.70
2022-09-12T01:29:02.971Z,2.33
2022-09-12T01:31:39.879Z,2.10
2022-09-12T01:34:26.513Z,1.80
2022-09-12T01:37:12.798Z,1.70
2022-09-12T01:40:10.673Z,1.63
2022-09-12T01:43:01.577Z,1.67
2022-09-12T01:45:41.586Z,1.60
2022-09-12T01:48:22.177Z,1.75
2022-09-12T01:51:11.631Z,1.60
2022-09-12T01:53:44.477Z,1.85
2022-09-12T01:56:22.417Z,1.60
2022-09-12T01:59:04.284Z,1.77
2022-09-12T02:01:34.149Z,1.52
2022-09-12T02:04:15.937Z,1.70
2022-09-12T02:07:01.440Z,2.40
2022-09-12T02:09:40.037Z,1.65
2022-09-12T02:12:10.756Z,1.77
2022-09-12T02:14:45.716Z,2.00
2022-09-12T02:17:23.606Z,1.77
2022-09-12T02:20:00.276Z,1.73
2022-09-12T02:22:29.697Z,1.83
2022-09-12T02:25:03.238Z,1.85
2022-09-12T02:27:38.066Z,2.10
2022-09-12T02:30:07.220Z,1.73
2022-09-12T02:32:43.241Z,2.20
2022-09-12T02:35:31.544Z,2.00
2022-09-12T02:38:32.594Z,1.90
2022-09-12T02:40:59.907Z,1.73
2022-09-12T02:43:27.084Z,1.88
2022-09-12T02:45:54.350Z,1.73
2022-09-12T02:48:24.170Z,2.15
2022-09-12T02:50:51.730Z,1.90
2022-09-12T02:53:19.996Z,2.00
2022-09-12T02:55:47.761Z,2.45
2022-09-12T02:58:21.184Z,2.38
2022-09-12T03:00:58.149Z,2.38
2022-09-12T03:03:50.251Z,2.35
2022-09-12T03:06:37.374Z,2.15
2022-09-12T03:09:30.885Z,1.90
2022-09-12T03:12:19.344Z,2.15
2022-09-12T03:14:52.769Z,2.00
2022-09-12T03:17:39.278Z,2.20
2022-09-12T03:20:12.401Z,1.95
2022-09-12T03:23:01.445Z,1.83
2022-09-12T03:26:11.112Z,1.80
2022-09-12T03:28:40.773Z,1.60
2022-09-12T03:31:19.271Z,1.42
2022-09-12T03:33:47.330Z,1.73
2022-09-12T03:36:25.952Z,1.77
2022-09-12T03:38:53.510Z,1.50
2022-09-12T03:41:21.016Z,1.58
2022-09-12T03:43:48.717Z,1.67
2022-09-12T03:46:16.304Z,1.58
2022-09-12T03:48:44.199Z,2.15
2022-09-12T03:51:11.954Z,1.50
2022-09-12T03:53:40.776Z,1.48
2022-09-12T03:56:10.139Z,1.65
2022-09-12T03:58:38.472Z,1.58
2022-09-12T04:01:14.260Z,1.67
2022-09-12T04:03:47.289Z,2.10
2022-09-12T04:06:18.387Z,1.95
2022-09-12T04:08:49.137Z,2.08
2022-09-12T04:11:16.836Z,1.00
2022-09-12T04:13:46.683Z,1.67
2022-09-12T04:16:15.629Z,1.38
2022-09-12T04:18:43.110Z,1.60
2022-09-12T04:21:20.218Z,1.40
2022-09-12T04:23:47.497Z,1.58
2022-09-12T04:26:15.479Z,1.50
2022-09-12T04:28:42.790Z,1.15
2022-09-12T04:31:18.213Z,1.20
2022-09-12T04:33:46.659Z,1.40
2022-09-12T04:36:17.418Z,1.00
2022-09-12T04:38:46.308Z,1.20
2022-09-12T04:41:23.763Z,1.45
2022-09-12T04:43:58.965Z,1.10
2022-09-12T04:46:26.810Z,1.00
2022-09-12T04:48:57.119Z,1.17
2022-09-12T04:51:36.290Z,1.15
2022-09-12T04:54:11.007Z,1.02
2022-09-12T04:56:44.357Z,1.38
2022-09-12T04:59:13.245Z,1.05
2022-09-12T05:01:41.351Z,1.20
2022-09-12T05:04:13.131Z,1.00
2022-09-12T05:06:41.887Z,1.00
2022-09-12T05:09:12.792Z,1.42
2022-09-12T05:14:31.604Z,1.25
2022-09-12T05:17:02.709Z,1.10
2022-09-12T05:19:31.233Z,1.30
2022-09-12T05:21:59.337Z,0.90
2022-09-12T05:24:26.829Z,1.10
2022-09-12T05:26:53.984Z,1.02
2022-09-12T05:29:21.085Z,0.93
2022-09-12T05:31:52.253Z,1.30
2022-09-12T05:34:21.618Z,1.10
2022-09-12T05:36:50.185Z,1.55
2022-09-12T05:39:18.684Z,1.30
2022-09-12T05:41:47.213Z,1.50
2022-09-12T05:44:17.406Z,1.15
2022-09-12T05:46:48.785Z,1.15
2022-09-12T05:49:16.281Z,1.80
2022-09-12T05:51:45.482Z,1.45
2022-09-12T05:54:18.075Z,1.40
2022-09-12T05:56:46.312Z,2.28
2022-09-12T05:59:18.516Z,1.63
2022-09-12T06:01:47.757Z,2.20
2022-09-12T06:04:15.615Z,1.65
2022-09-12T06:06:45.520Z,1.60
2022-09-12T06:09:16.274Z,1.58
2022-09-12T06:11:44.291Z,1.20
2022-09-12T06:14:13.723Z,1.27
2022-09-12T06:16:41.502Z,1.30
2022-09-12T06:19:15.128Z,1.73
2022-09-12T06:21:42.409Z,1.38
2022-09-12T06:24:10.125Z,1.17
2022-09-12T06:26:37.300Z,1.42
2022-09-12T06:29:05.326Z,1.35
2022-09-12T06:31:36.059Z,1.10
2022-09-12T06:34:06.183Z,1.10
2022-09-12T06:36:37.746Z,1.38
2022-09-12T06:39:12.077Z,1.20
2022-09-12T06:41:43.821Z,1.25
2022-09-12T06:44:18.139Z,1.20
2022-09-12T06:46:45.980Z,1.20
2022-09-12T06:49:16.583Z,1.30
2022-09-12T06:51:43.814Z,1.33
2022-09-12T06:54:15.958Z,1.30
2022-09-12T06:56:45.527Z,1.17
2022-09-12T06:59:12.999Z,1.15
2022-09-12T07:01:42.095Z,1.30
2022-09-12T07:04:10.687Z,1.50
2022-09-12T07:06:41.594Z,1.23
2022-09-12T07:09:12.511Z,1.60
2022-09-12T07:11:41.735Z,1.70
2022-09-12T07:14:13.141Z,1.60
2022-09-12T07:16:40.456Z,1.70
2022-09-12T07:19:08.346Z,1.73
2022-09-12T07:21:40.785Z,1.90
2022-09-12T07:24:10.456Z,2.22
2022-09-12T07:26:40.366Z,2.22
2022-09-12T07:29:35.366Z,2.40
2022-09-12T07:31:58.214Z,2.00
2022-09-12T07:34:25.721Z,1.90
2022-09-12T07:36:52.924Z,2.10
2022-09-12T07:39:20.276Z,1.85
2022-09-12T07:41:47.517Z,1.98
2022-09-12T07:44:14.756Z,1.90
2022-09-12T07:46:42.168Z,1.88
2022-09-12T07:49:09.583Z,2.10
2022-09-12T07:51:37.835Z,2.00
2022-09-12T07:54:09.541Z,2.40
2022-09-12T07:56:39.112Z,2.00
2022-09-12T07:59:07.503Z,1.77
2022-09-12T08:01:35.020Z,1.70
2022-09-12T08:04:03.831Z,1.90
2022-09-12T08:06:32.449Z,2.22
2022-09-12T08:09:00.370Z,1.88
2022-09-12T08:11:29.532Z,2.20
2022-09-12T08:13:58.304Z,1.80
2022-09-12T08:16:28.475Z,1.60
2022-09-12T08:18:56.001Z,2.17
2022-09-12T08:21:28.740Z,1.70
2022-09-12T08:23:59.118Z,1.70
2022-09-12T08:26:26.865Z,2.40
2022-09-12T08:28:55.649Z,2.10
2022-09-12T08:31:24.956Z,2.00
2022-09-12T08:33:53.396Z,1.70
2022-09-12T08:36:23.084Z,2.00
2022-09-12T08:38:59.245Z,2.05
2022-09-12T08:41:36.600Z,2.13
2022-09-12T08:44:28.679Z,2.30
2022-09-12T08:46:59.003Z,2.20
2022-09-12T08:49:42.674Z,2.40
2022-09-12T08:52:19.356Z,1.95
2022-09-12T08:54:47.223Z,2.20
2022-09-12T08:57:15.671Z,2.38
2022-09-12T08:59:45.079Z,2.10
2022-09-12T09:02:34.647Z,2.08
2022-09-12T09:05:13.352Z,2.03
2022-09-12T09:07:55.811Z,2.17
2022-09-12T09:10:31.919Z,2.00
2022-09-12T09:13:43.105Z,2.13
2022-09-12T09:16:35.223Z,6.47
2022-09-12T09:19:11.776Z,4.43
2022-09-12T09:21:50.426Z,7.43
2022-09-12T09:24:22.253Z,3.05
2022-09-12T09:26:58.597Z,3.38
2022-09-12T09:29:49.017Z,3.97
2022-09-12T09:32:26.955Z,3.90
2022-09-12T09:34:55.288Z,3.50
2022-09-12T09:37:42.244Z,3.55
2022-09-12T09:40:21.668Z,3.15
2022-09-12T09:43:06.309Z,2.60
2022-09-12T09:45:33.934Z,2.90
2022-09-12T09:48:17.227Z,2.60
2022-09-12T09:50:49.381Z,2.38
2022-09-12T09:53:28.719Z,2.80
2022-09-12T09:55:57.998Z,2.80
2022-09-12T09:58:30.056Z,4.75
2022-09-12T10:01:02.774Z,5.53
2022-09-12T10:03:38.076Z,6.10
2022-09-12T10:06:33.353Z,8.60
2022-09-12T10:09:17.135Z,7.10
2022-09-12T10:11:45.997Z,4.53
2022-09-12T10:14:37.003Z,4.60
2022-09-12T10:17:24.217Z,6.75
2022-09-12T10:20:10.558Z,5.72
2022-09-12T10:22:39.612Z,5.78
2022-09-12T10:25:12.380Z,6.47
2022-09-12T10:27:42.465Z,7.07
2022-09-12T10:30:19.236Z,6.35
2022-09-12T10:32:51.149Z,4.82
2022-09-12T10:35:24.584Z,4.15
2022-09-12T10:38:14.622Z,3.42
2022-09-12T10:40:44.202Z,2.30
2022-09-12T10:43:28.240Z,3.30
2022-09-12T10:46:14.803Z,3.20
2022-09-12T10:49:03.018Z,2.35
2022-09-12T10:51:30.593Z,2.92
2022-09-12T10:54:00.952Z,2.70
2022-09-12T10:56:33.873Z,2.22
2022-09-12T10:59:19.961Z,2.40
2022-09-12T11:02:00.518Z,2.65
2022-09-12T11:04:51.828Z,2.47
2022-09-12T11:07:37.130Z,2.60
2022-09-12T11:10:27.269Z,2.63
2022-09-12T11:13:24.183Z,3.15
2022-09-12T11:16:29.829Z,2.42
2022-09-12T11:18:56.973Z,2.53
2022-09-12T11:21:35.228Z,2.47
2022-09-12T11:24:15.502Z,3.22
2022-09-12T11:26:52.317Z,2.70
2022-09-12T11:29:22.551Z,2.40
2022-09-12T11:31:55.378Z,2.20
2022-09-12T11:34:32.953Z,3.00
2022-09-12T11:37:38.359Z,2.88
2022-09-12T11:40:28.108Z,2.85
2022-09-12T11:43:02.189Z,2.45
2022-09-12T11:45:44.532Z,3.15
2022-09-12T11:48:37.865Z,2.90
2022-09-12T11:51:16.230Z,2.90
2022-09-12T11:53:47.065Z,2.80
2022-09-12T11:56:19.676Z,2.50
2022-09-12T11:58:55.891Z,2.70
2022-09-12T12:01:35.360Z,2.60
2022-09-12T12:04:13.009Z,2.80
2022-09-12T12:06:58.296Z,2.40
2022-09-12T12:09:27.024Z,3.20
2022-09-12T12:11:58.538Z,2.65
2022-09-12T12:14:33.757Z,2.55
2022-09-12T12:17:01.015Z,2.80
2022-09-12T12:19:38.582Z,2.72
2022-09-12T12:22:18.305Z,3.15
2022-09-12T12:25:16.235Z,2.67
2022-09-12T12:28:01.876Z,2.60
2022-09-12T12:30:29.558Z,3.08
2022-09-12T12:33:14.730Z,2.42
2022-09-12T12:35:46.479Z,2.80
2022-09-12T12:38:38.716Z,2.90
2022-09-12T12:41:18.087Z,2.97
2022-09-12T12:43:51.682Z,3.40
2022-09-12T12:46:21.190Z,3.45
2022-09-12T12:49:03.873Z,4.30
2022-09-12T12:51:36.351Z,3.90
2022-09-12T12:54:09.773Z,3.90
2022-09-12T12:56:42.631Z,3.70
2022-09-12T12:59:22.056Z,3.70
2022-09-12T13:01:55.362Z,3.40
2022-09-12T13:04:27.466Z,3.65
2022-09-12T13:07:03.518Z,3.50
2022-09-12T13:09:35.468Z,3.15
2022-09-12T13:12:09.197Z,3.22
2022-09-12T13:14:51.960Z,3.10
2022-09-12T13:17:49.018Z,2.80
2022-09-12T13:20:34.558Z,2.90
2022-09-12T13:23:01.829Z,3.08
2022-09-12T13:25:34.853Z,2.92
2022-09-12T13:28:11.720Z,3.22
2022-09-12T13:31:12.333Z,3.47
2022-09-12T13:33:50.796Z,3.90
2022-09-12T13:36:37.250Z,4.75
2022-09-12T13:39:24.778Z,5.60
2022-09-12T13:42:00.984Z,6.28
2022-09-12T13:44:31.267Z,6.18
2022-09-12T13:47:03.077Z,6.28
2022-09-12T13:49:40.311Z,6.82
2022-09-12T13:52:16.404Z,6.88
2022-09-12T13:54:48.984Z,6.75
2022-09-12T13:57:31.088Z,6.80
2022-09-12T13:59:59.971Z,6.40
2022-09-12T14:02:29.559Z,6.53
2022-09-12T14:05:12.330Z,6.80
2022-09-12T14:07:51.581Z,6.45
2022-09-12T14:10:26.339Z,6.53
2022-09-12T14:12:55.562Z,6.05
2022-09-12T14:15:27.754Z,5.90
2022-09-12T14:18:01.674Z,5.90
2022-09-12T14:20:33.137Z,5.88
2022-09-12T14:23:21.716Z,5.85
2022-09-12T14:25:50.095Z,5.82
2022-09-12T14:28:22.786Z,5.32
2022-09-12T14:31:02.903Z,5.25
2022-09-12T14:33:51.483Z,5.03
2022-09-12T14:36:35.905Z,5.07
2022-09-12T14:39:07.187Z,4.90
2022-09-12T14:41:38.947Z,4.72
2022-09-12T14:44:11.503Z,4.63
2022-09-12T14:46:41.152Z,5.28
2022-09-12T14:49:09.065Z,7.75
2022-09-12T14:51:40.593Z,11.00
2022-09-12T14:54:28.143Z,10.80
2022-09-12T14:56:56.723Z,11.00
2022-09-12T14:59:36.239Z,11.07
2022-09-12T15:02:25.017Z,10.73
2022-09-12T15:05:20.459Z,11.95
2022-09-12T15:07:50.597Z,12.55
2022-09-12T15:10:29.583Z,15.02
2022-09-12T15:13:06.754Z,15.20
2022-09-12T15:15:34.119Z,15.32
2022-09-12T15:18:05.885Z,13.23
2022-09-12T15:20:36.479Z,14.43
2022-09-12T15:23:06.354Z,15.23
2022-09-12T15:25:33.640Z,13.68
2022-09-12T15:28:00.905Z,13.07
2022-09-12T15:30:28.219Z,16.38
2022-09-12T15:32:55.553Z,14.25
2022-09-12T15:35:25.367Z,13.57
2022-09-12T15:37:52.585Z,13.57
2022-09-12T15:40:20.279Z,14.88
2022-09-12T15:42:47.473Z,13.32
2022-09-12T15:45:25.258Z,12.80
2022-09-12T15:47:52.614Z,12.50
2022-09-12T15:50:20.299Z,12.48
2022-09-12T15:52:48.022Z,12.60
2022-09-12T15:55:32.329Z,11.05
2022-09-12T15:58:04.912Z,11.32
2022-09-12T16:03:01.511Z,10.98
2022-09-12T16:05:29.740Z,11.15
2022-09-12T16:07:56.976Z,10.75
2022-09-12T16:10:30.470Z,9.70
2022-09-12T16:12:58.342Z,10.30
2022-09-12T16:15:26.253Z,9.07
2022-09-12T16:17:53.995Z,9.35
2022-09-12T16:20:22.872Z,8.80
2022-09-12T16:22:50.217Z,7.82
2022-09-12T16:25:17.865Z,7.90
2022-09-12T16:27:45.467Z,7.68
2022-09-12T16:30:13.540Z,7.90
2022-09-12T16:32:40.977Z,8.10
2022-09-12T16:35:08.668Z,7.63
2022-09-12T16:37:36.435Z,8.30
2022-09-12T16:40:05.595Z,7.93
2022-09-12T16:42:33.366Z,7.15
2022-09-12T16:45:00.513Z,7.57
2022-09-12T16:47:27.750Z,7.53
2022-09-12T16:49:55.033Z,7.78
2022-09-12T16:52:22.418Z,7.28
2022-09-12T16:54:49.648Z,6.95
2022-09-12T16:57:17.128Z,6.55
2022-09-12T16:59:45.683Z,6.35
2022-09-12T17:02:14.287Z,6.90
2022-09-12T17:04:43.092Z,6.25
2022-09-12T17:07:10.310Z,6.00
2022-09-12T17:09:37.589Z,6.20
2022-09-12T17:12:05.104Z,6.00
2022-09-12T17:14:32.363Z,5.60
2022-09-12T17:16:59.615Z,5.43
2022-09-12T17:19:30.525Z,5.30
2022-09-12T17:21:58.924Z,4.90
2022-09-12T17:24:27.719Z,4.50
2022-09-12T17:26:54.990Z,4.70
2022-09-12T17:29:22.475Z,4.07
2022-09-12T17:31:50.352Z,4.45
2022-09-12T17:34:18.091Z,4.13
2022-09-12T17:36:46.010Z,4.20
2022-09-12T17:39:14.639Z,3.95
2022-09-12T17:41:43.074Z,3.88
2022-09-12T17:44:15.393Z,4.00
2022-09-12T17:46:43.299Z,4.65
2022-09-12T17:49:16.047Z,4.35
2022-09-12T17:51:44.412Z,4.15
2022-09-12T17:54:16.239Z,4.15
2022-09-12T17:56:46.812Z,3.97
2022-09-12T17:59:17.069Z,4.20
2022-09-12T18:02:04.494Z,3.83
2022-09-12T18:04:31.972Z,3.90
2022-09-12T18:07:00.643Z,4.07
2022-09-12T18:09:29.576Z,4.30
2022-09-12T18:11:57.509Z,4.53
2022-09-12T18:14:27.796Z,4.40
2022-09-12T18:16:57.400Z,4.45
2022-09-12T18:19:25.025Z,4.53
2022-09-12T18:21:52.375Z,4.63
2022-09-12T18:24:19.788Z,4.63
2022-09-12T18:26:47.063Z,3.90
2022-09-12T18:29:18.116Z,4.57
2022-09-12T18:31:46.936Z,4.13
2022-09-12T18:34:14.256Z,4.30
2022-09-12T18:36:45.327Z,4.65
2022-09-12T18:39:13.372Z,4.50
2022-09-12T18:41:40.949Z,4.25
2022-09-12T18:44:10.293Z,4.38
2022-09-12T18:46:38.045Z,4.15
2022-09-12T18:49:05.873Z,4.28
2022-09-12T18:51:36.254Z,4.07
2022-09-12T18:54:06.564Z,3.83
2022-09-12T18:56:36.137Z,3.95
2022-09-12T18:59:05.672Z,3.85
2022-09-12T19:01:38.370Z,4.05
2022-09-12T19:04:08.274Z,4.70
2022-09-12T19:06:39.628Z,4.18
2022-09-12T19:09:09.253Z,4.22
2022-09-12T19:11:39.526Z,4.45
2022-09-12T19:14:07.963Z,4.22
2022-09-12T19:16:36.751Z,4.53
2022-09-12T19:19:04.083Z,4.60
2022-09-12T19:21:33.042Z,4.30
2022-09-12T19:24:03.593Z,4.63
2022-09-12T19:26:31.370Z,4.65
2022-09-12T19:28:59.279Z,4.75
2022-09-12T19:31:27.405Z,4.40
2022-09-12T19:34:02.702Z,4.40
2022-09-12T19:36:46.999Z,4.65
2022-09-12T19:41:46.311Z,4.28
2022-09-12T19:44:13.971Z,4.55
2022-09-12T19:46:42.526Z,4.20
2022-09-12T19:49:11.616Z,3.75
2022-09-12T19:51:39.557Z,4.07
2022-09-12T19:54:07.955Z,4.05
2022-09-12T19:56:35.367Z,4.20
2022-09-12T19:59:02.995Z,4.05
2022-09-12T20:01:30.357Z,3.65
2022-09-12T20:03:58.779Z,3.50
2022-09-12T20:06:27.023Z,3.67
2022-09-12T20:08:54.896Z,3.75
2022-09-12T20:11:24.003Z,3.92
2022-09-12T20:13:52.735Z,3.60
2022-09-12T20:16:30.145Z,3.63
2022-09-12T20:19:00.808Z,4.03
2022-09-12T20:21:34.352Z,4.18
2022-09-12T20:24:03.552Z,3.80
2022-09-12T20:26:31.300Z,3.95
2022-09-12T20:28:58.882Z,3.90
2022-09-12T20:31:26.300Z,3.70
2022-09-12T20:33:54.182Z,4.57
2022-09-12T20:36:22.698Z,4.70
2022-09-12T20:38:52.793Z,4.30
2022-09-12T20:41:21.743Z,4.60
2022-09-12T20:43:53.536Z,4.72
2022-09-12T20:46:22.490Z,4.38
2022-09-12T20:48:50.755Z,5.15
2022-09-12T20:51:19.380Z,4.82
2022-09-12T20:53:46.809Z,5.10
2022-09-12T20:56:15.234Z,5.65
2022-09-12T20:58:44.665Z,5.28
2022-09-12T21:01:14.232Z,5.57
2022-09-12T21:03:43.226Z,5.22
2022-09-12T21:06:12.716Z,5.20
2022-09-12T21:08:40.751Z,6.00
2022-09-12T21:11:10.597Z,6.03
2022-09-12T21:13:38.468Z,5.15
2022-09-12T21:16:16.950Z,5.00
2022-09-12T21:18:44.464Z,6.65
2022-09-12T21:21:13.466Z,5.75
2022-09-12T21:23:41.431Z,5.10
2022-09-12T21:26:09.131Z,5.82
2022-09-12T21:28:36.683Z,6.20
2022-09-12T21:31:04.880Z,6.38
2022-09-12T21:33:32.338Z,6.00
2022-09-12T21:36:04.488Z,6.32
2022-09-12T21:38:32.197Z,6.15
2022-09-12T21:41:30.842Z,5.43
2022-09-12T21:43:58.242Z,6.10
2022-09-12T21:46:25.606Z,6.53
2022-09-12T21:48:52.781Z,7.38
2022-09-12T21:51:20.781Z,7.85
2022-09-12T21:53:48.337Z,7.85
2022-09-12T21:56:15.724Z,7.65
2022-09-12T21:58:43.247Z,11.05
2022-09-12T22:01:12.425Z,8.60
2022-09-12T22:03:41.056Z,7.70
2022-09-12T22:06:09.425Z,8.63
2022-09-12T22:08:38.583Z,8.18
2022-09-12T22:11:09.600Z,8.70
2022-09-12T22:13:40.699Z,9.13
2022-09-12T22:16:08.411Z,8.85
2022-09-12T22:18:36.900Z,9.30
2022-09-12T22:21:15.705Z,9.77
2022-09-12T22:24:02.007Z,9.20
2022-09-12T22:26:30.303Z,9.68
2022-09-12T22:28:57.668Z,10.38
2022-09-12T22:31:25.130Z,11.20
2022-09-12T22:33:58.697Z,11.13
2022-09-12T22:36:30.474Z,11.30
2022-09-12T22:38:59.180Z,11.75
2022-09-12T22:41:26.484Z,10.88
2022-09-12T22:43:53.684Z,11.10
2022-09-12T22:46:20.907Z,10.80
2022-09-12T22:48:48.387Z,11.48
2022-09-12T22:51:15.653Z,11.48
2022-09-12T22:53:43.224Z,11.98
2022-09-12T22:56:11.202Z,10.55
2022-09-12T22:58:39.428Z,11.27
2022-09-12T23:01:07.424Z,10.18
2022-09-12T23:03:35.426Z,9.70
2022-09-12T23:06:03.565Z,8.73
2022-09-12T23:08:30.810Z,9.32
2022-09-12T23:11:16.827Z,7.75
2022-09-12T23:13:51.448Z,7.38
2022-09-12T23:16:26.394Z,6.95
2022-09-12T23:18:53.985Z,9.13
2022-09-12T23:21:22.100Z,8.50
2022-09-12T23:23:51.202Z,8.18
2022-09-12T23:26:22.422Z,7.65
2022-09-12T23:28:53.159Z,7.80
2022-09-12T23:31:25.322Z,9.13
2022-09-12T23:33:54.253Z,7.68
2022-09-12T23:36:22.616Z,11.13
2022-09-12T23:38:50.538Z,9.15
2022-09-12T23:41:18.840Z,8.27
2022-09-12T23:43:47.216Z,9.48
2022-09-12T23:46:16.460Z,10.45
2022-09-12T23:48:44.769Z,8.82
2022-09-12T23:51:12.712Z,10.82
2022-09-12T23:53:41.526Z,11.27
2022-09-12T23:56:09.354Z,10.80
2022-09-12T23:58:36.961Z,8.93
